sensor_id;sensor_type;location;lat;lon;timestamp;P1;durP1;ratioP1;P2;durP2;ratioP2
13061;SDS011;6597;52.218;9.882;2023-08-21T00:00:21;45.63;;;6.60;;
13061;SDS011;6597;52.218;9.882;2023-08-21T00:02:47;72.15;;;9.25;;
13061;SDS011;6597;52.218;9.882;2023-08-21T00:05:14;43.25;;;6.38;;
13061;SDS011;6597;52.218;9.882;2023-08-21T00:07:41;21.27;;;5.72;;
13061;SDS011;6597;52.218;9.882;2023-08-21T00:10:08;21.23;;;5.85;;
13061;SDS011;6597;52.218;9.882;2023-08-21T00:12:39;19.27;;;5.25;;
13061;SDS011;6597;52.218;9.882;2023-08-21T00:15:06;22.13;;;5.53;;
13061;SDS011;6597;52.218;9.882;2023-08-21T00:17:34;22.30;;;5.28;;
13061;SDS011;6597;52.218;9.882;2023-08-21T00:20:01;8.80;;;4.57;;
13061;SDS011;6597;52.218;9.882;2023-08-21T00:22:28;8.82;;;4.60;;
13061;SDS011;6597;52.218;9.882;2023-08-21T00:24:54;7.93;;;5.13;;
13061;SDS011;6597;52.218;9.882;2023-08-21T00:27:21;10.57;;;4.60;;
13061;SDS011;6597;52.218;9.882;2023-08-21T00:29:49;10.98;;;4.65;;
13061;SDS011;6597;52.218;9.882;2023-08-21T00:32:15;17.67;;;5.55;;
13061;SDS011;6597;52.218;9.882;2023-08-21T00:34:42;13.23;;;5.85;;
13061;SDS011;6597;52.218;9.882;2023-08-21T00:37:08;15.43;;;4.90;;
13061;SDS011;6597;52.218;9.882;2023-08-21T00:39:36;23.23;;;5.28;;
13061;SDS011;6597;52.218;9.882;2023-08-21T00:42:02;34.80;;;7.72;;
13061;SDS011;6597;52.218;9.882;2023-08-21T00:44:29;21.25;;;5.07;;
13061;SDS011;6597;52.218;9.882;2023-08-21T00:46:57;21.90;;;5.32;;
13061;SDS011;6597;52.218;9.882;2023-08-21T00:49:23;29.45;;;5.40;;
13061;SDS011;6597;52.218;9.882;2023-08-21T00:51:50;31.33;;;5.75;;
13061;SDS011;6597;52.218;9.882;2023-08-21T00:54:17;22.75;;;4.82;;
13061;SDS011;6597;52.218;9.882;2023-08-21T00:56:45;23.25;;;5.53;;
13061;SDS011;6597;52.218;9.882;2023-08-21T00:59:13;33.30;;;6.07;;
13061;SDS011;6597;52.218;9.882;2023-08-21T01:01:40;29.23;;;6.25;;
13061;SDS011;6597;52.218;9.882;2023-08-21T01:04:08;30.85;;;5.97;;
13061;SDS011;6597;52.218;9.882;2023-08-21T01:06:35;23.35;;;5.50;;
13061;SDS011;6597;52.218;9.882;2023-08-21T01:09:03;23.80;;;4.93;;
13061;SDS011;6597;52.218;9.882;2023-08-21T01:11:40;26.85;;;5.57;;
13061;SDS011;6597;52.218;9.882;2023-08-21T01:14:13;16.88;;;4.68;;
13061;SDS011;6597;52.218;9.882;2023-08-21T01:16:47;26.90;;;5.30;;
13061;SDS011;6597;52.218;9.882;2023-08-21T01:19:24;35.80;;;6.35;;
13061;SDS011;6597;52.218;9.882;2023-08-21T01:21:56;33.90;;;6.05;;
13061;SDS011;6597;52.218;9.882;2023-08-21T01:24:24;26.00;;;5.07;;
13061;SDS011;6597;52.218;9.882;2023-08-21T01:26:51;27.40;;;5.10;;
13061;SDS011;6597;52.218;9.882;2023-08-21T01:29:18;34.17;;;5.53;;
13061;SDS011;6597;52.218;9.882;2023-08-21T01:31:45;41.30;;;6.60;;
13061;SDS011;6597;52.218;9.882;2023-08-21T01:34:16;52.15;;;7.78;;
13061;SDS011;6597;52.218;9.882;2023-08-21T01:36:43;47.58;;;6.40;;
13061;SDS011;6597;52.218;9.882;2023-08-21T01:39:11;25.95;;;4.85;;
13061;SDS011;6597;52.218;9.882;2023-08-21T01:41:40;27.48;;;4.95;;
13061;SDS011;6597;52.218;9.882;2023-08-21T01:44:08;28.83;;;5.20;;
13061;SDS011;6597;52.218;9.882;2023-08-21T01:46:34;35.92;;;5.45;;
13061;SDS011;6597;52.218;9.882;2023-08-21T01:49:01;28.33;;;4.75;;
13061;SDS011;6597;52.218;9.882;2023-08-21T01:51:27;31.80;;;5.13;;
13061;SDS011;6597;52.218;9.882;2023-08-21T01:53:54;27.20;;;4.88;;
13061;SDS011;6597;52.218;9.882;2023-08-21T01:56:20;30.23;;;5.28;;
13061;SDS011;6597;52.218;9.882;2023-08-21T01:58:49;18.63;;;4.07;;
13061;SDS011;6597;52.218;9.882;2023-08-21T02:01:16;25.60;;;5.28;;
13061;SDS011;6597;52.218;9.882;2023-08-21T02:03:43;39.67;;;6.25;;
13061;SDS011;6597;52.218;9.882;2023-08-21T02:06:09;41.00;;;6.32;;
13061;SDS011;6597;52.218;9.882;2023-08-21T02:08:38;77.20;;;8.93;;
13061;SDS011;6597;52.218;9.882;2023-08-21T02:11:05;38.95;;;5.70;;
13061;SDS011;6597;52.218;9.882;2023-08-21T02:13:31;31.20;;;5.22;;
13061;SDS011;6597;52.218;9.882;2023-08-21T02:16:00;74.18;;;9.13;;
13061;SDS011;6597;52.218;9.882;2023-08-21T02:18:26;34.05;;;5.28;;
13061;SDS011;6597;52.218;9.882;2023-08-21T02:20:53;41.17;;;6.07;;
13061;SDS011;6597;52.218;9.882;2023-08-21T02:23:19;29.30;;;4.65;;
13061;SDS011;6597;52.218;9.882;2023-08-21T02:25:46;30.98;;;5.15;;
13061;SDS011;6597;52.218;9.882;2023-08-21T02:28:14;28.98;;;5.10;;
13061;SDS011;6597;52.218;9.882;2023-08-21T02:30:40;35.55;;;5.40;;
13061;SDS011;6597;52.218;9.882;2023-08-21T02:33:08;27.77;;;4.90;;
13061;SDS011;6597;52.218;9.882;2023-08-21T02:35:35;30.73;;;5.22;;
13061;SDS011;6597;52.218;9.882;2023-08-21T02:38:02;33.10;;;4.90;;
13061;SDS011;6597;52.218;9.882;2023-08-21T02:40:29;34.45;;;6.13;;
13061;SDS011;6597;52.218;9.882;2023-08-21T02:42:55;25.48;;;5.05;;
13061;SDS011;6597;52.218;9.882;2023-08-21T02:45:22;23.65;;;5.18;;
13061;SDS011;6597;52.218;9.882;2023-08-21T02:47:49;21.40;;;5.03;;
13061;SDS011;6597;52.218;9.882;2023-08-21T02:50:17;101.90;;;11.38;;
13061;SDS011;6597;52.218;9.882;2023-08-21T02:52:44;24.70;;;4.47;;
13061;SDS011;6597;52.218;9.882;2023-08-21T02:55:11;20.25;;;4.38;;
13061;SDS011;6597;52.218;9.882;2023-08-21T02:57:37;22.75;;;4.22;;
13061;SDS011;6597;52.218;9.882;2023-08-21T03:00:04;26.58;;;5.20;;
13061;SDS011;6597;52.218;9.882;2023-08-21T03:02:32;22.98;;;4.43;;
13061;SDS011;6597;52.218;9.882;2023-08-21T03:04:59;27.15;;;4.97;;
13061;SDS011;6597;52.218;9.882;2023-08-21T03:07:27;30.25;;;4.93;;
13061;SDS011;6597;52.218;9.882;2023-08-21T03:09:54;18.13;;;4.55;;
13061;SDS011;6597;52.218;9.882;2023-08-21T03:12:20;22.20;;;4.93;;
13061;SDS011;6597;52.218;9.882;2023-08-21T03:14:47;24.10;;;4.70;;
13061;SDS011;6597;52.218;9.882;2023-08-21T03:17:14;27.88;;;5.25;;
13061;SDS011;6597;52.218;9.882;2023-08-21T03:19:40;21.35;;;4.55;;
13061;SDS011;6597;52.218;9.882;2023-08-21T03:22:07;18.48;;;3.95;;
13061;SDS011;6597;52.218;9.882;2023-08-21T03:24:35;19.45;;;4.45;;
13061;SDS011;6597;52.218;9.882;2023-08-21T03:27:01;22.98;;;4.60;;
13061;SDS011;6597;52.218;9.882;2023-08-21T03:29:28;23.85;;;5.03;;
13061;SDS011;6597;52.218;9.882;2023-08-21T03:31:55;21.00;;;5.13;;
13061;SDS011;6597;52.218;9.882;2023-08-21T03:34:22;16.50;;;3.90;;
13061;SDS011;6597;52.218;9.882;2023-08-21T03:36:53;19.92;;;4.75;;
13061;SDS011;6597;52.218;9.882;2023-08-21T03:39:20;19.42;;;5.03;;
13061;SDS011;6597;52.218;9.882;2023-08-21T03:41:48;26.55;;;5.97;;
13061;SDS011;6597;52.218;9.882;2023-08-21T03:44:15;20.77;;;5.28;;
13061;SDS011;6597;52.218;9.882;2023-08-21T03:46:41;29.02;;;5.78;;
13061;SDS011;6597;52.218;9.882;2023-08-21T03:49:09;17.70;;;4.82;;
13061;SDS011;6597;52.218;9.882;2023-08-21T03:51:35;15.55;;;5.25;;
13061;SDS011;6597;52.218;9.882;2023-08-21T03:54:03;21.02;;;5.05;;
13061;SDS011;6597;52.218;9.882;2023-08-21T03:56:30;19.02;;;4.47;;
13061;SDS011;6597;52.218;9.882;2023-08-21T03:58:58;19.23;;;4.63;;
13061;SDS011;6597;52.218;9.882;2023-08-21T04:01:24;27.98;;;5.20;;
13061;SDS011;6597;52.218;9.882;2023-08-21T04:03:51;27.42;;;5.38;;
13061;SDS011;6597;52.218;9.882;2023-08-21T04:06:17;27.20;;;5.70;;
13061;SDS011;6597;52.218;9.882;2023-08-21T04:08:44;26.80;;;5.60;;
13061;SDS011;6597;52.218;9.882;2023-08-21T04:11:11;24.52;;;4.93;;
13061;SDS011;6597;52.218;9.882;2023-08-21T04:13:38;24.83;;;5.15;;
13061;SDS011;6597;52.218;9.882;2023-08-21T04:16:06;21.80;;;5.18;;
13061;SDS011;6597;52.218;9.882;2023-08-21T04:18:33;23.88;;;4.88;;
13061;SDS011;6597;52.218;9.882;2023-08-21T04:21:01;22.65;;;4.80;;
13061;SDS011;6597;52.218;9.882;2023-08-21T04:23:28;30.83;;;5.53;;
13061;SDS011;6597;52.218;9.882;2023-08-21T04:25:59;22.92;;;4.82;;
13061;SDS011;6597;52.218;9.882;2023-08-21T04:28:26;23.35;;;5.15;;
13061;SDS011;6597;52.218;9.882;2023-08-21T04:30:52;27.37;;;5.63;;
13061;SDS011;6597;52.218;9.882;2023-08-21T04:33:20;27.75;;;5.63;;
13061;SDS011;6597;52.218;9.882;2023-08-21T04:35:47;61.40;;;9.02;;
13061;SDS011;6597;52.218;9.882;2023-08-21T04:38:14;22.97;;;5.10;;
13061;SDS011;6597;52.218;9.882;2023-08-21T04:40:41;27.83;;;5.57;;
13061;SDS011;6597;52.218;9.882;2023-08-21T04:43:07;24.10;;;4.97;;
13061;SDS011;6597;52.218;9.882;2023-08-21T04:45:34;27.33;;;5.40;;
13061;SDS011;6597;52.218;9.882;2023-08-21T04:48:02;23.88;;;5.22;;
13061;SDS011;6597;52.218;9.882;2023-08-21T04:50:31;25.42;;;5.18;;
13061;SDS011;6597;52.218;9.882;2023-08-21T04:52:58;26.95;;;5.22;;
13061;SDS011;6597;52.218;9.882;2023-08-21T04:55:25;19.20;;;4.45;;
13061;SDS011;6597;52.218;9.882;2023-08-21T04:57:51;27.00;;;5.60;;
13061;SDS011;6597;52.218;9.882;2023-08-21T05:00:18;56.40;;;8.35;;
13061;SDS011;6597;52.218;9.882;2023-08-21T05:02:44;23.45;;;4.57;;
13061;SDS011;6597;52.218;9.882;2023-08-21T05:05:11;30.38;;;5.28;;
13061;SDS011;6597;52.218;9.882;2023-08-21T05:07:39;21.73;;;4.53;;
13061;SDS011;6597;52.218;9.882;2023-08-21T05:10:06;24.98;;;4.35;;
13061;SDS011;6597;52.218;9.882;2023-08-21T05:12:35;19.92;;;4.00;;
13061;SDS011;6597;52.218;9.882;2023-08-21T05:15:02;23.77;;;4.55;;
13061;SDS011;6597;52.218;9.882;2023-08-21T05:17:28;23.15;;;4.35;;
13061;SDS011;6597;52.218;9.882;2023-08-21T05:19:56;25.60;;;4.68;;
13061;SDS011;6597;52.218;9.882;2023-08-21T05:22:22;25.10;;;4.68;;
13061;SDS011;6597;52.218;9.882;2023-08-21T05:24:50;21.80;;;4.45;;
13061;SDS011;6597;52.218;9.882;2023-08-21T05:27:17;21.95;;;3.88;;
13061;SDS011;6597;52.218;9.882;2023-08-21T05:29:43;22.95;;;4.22;;
13061;SDS011;6597;52.218;9.882;2023-08-21T05:32:10;20.35;;;4.47;;
13061;SDS011;6597;52.218;9.882;2023-08-21T05:34:37;13.63;;;3.90;;
13061;SDS011;6597;52.218;9.882;2023-08-21T05:37:03;17.13;;;4.05;;
13061;SDS011;6597;52.218;9.882;2023-08-21T05:39:30;19.55;;;4.38;;
13061;SDS011;6597;52.218;9.882;2023-08-21T05:41:58;18.92;;;4.43;;
13061;SDS011;6597;52.218;9.882;2023-08-21T05:44:24;17.02;;;4.38;;
13061;SDS011;6597;52.218;9.882;2023-08-21T05:46:51;15.77;;;3.90;;
13061;SDS011;6597;52.218;9.882;2023-08-21T05:49:18;17.20;;;3.67;;
13061;SDS011;6597;52.218;9.882;2023-08-21T05:51:44;21.88;;;4.60;;
13061;SDS011;6597;52.218;9.882;2023-08-21T05:54:11;17.35;;;4.18;;
13061;SDS011;6597;52.218;9.882;2023-08-21T05:56:39;15.13;;;3.72;;
13061;SDS011;6597;52.218;9.882;2023-08-21T05:59:09;13.48;;;3.88;;
13061;SDS011;6597;52.218;9.882;2023-08-21T06:01:36;19.42;;;4.82;;
13061;SDS011;6597;52.218;9.882;2023-08-21T06:04:03;14.68;;;3.97;;
13061;SDS011;6597;52.218;9.882;2023-08-21T06:06:50;15.30;;;4.55;;
13061;SDS011;6597;52.218;9.882;2023-08-21T06:09:17;15.15;;;3.83;;
13061;SDS011;6597;52.218;9.882;2023-08-21T06:11:43;13.43;;;3.97;;
13061;SDS011;6597;52.218;9.882;2023-08-21T06:14:11;12.95;;;3.33;;
13061;SDS011;6597;52.218;9.882;2023-08-21T06:16:38;12.85;;;3.63;;
13061;SDS011;6597;52.218;9.882;2023-08-21T06:19:04;18.30;;;4.00;;
13061;SDS011;6597;52.218;9.882;2023-08-21T06:21:31;10.32;;;3.42;;
13061;SDS011;6597;52.218;9.882;2023-08-21T06:23:58;19.45;;;4.35;;
13061;SDS011;6597;52.218;9.882;2023-08-21T06:26:24;13.93;;;3.75;;
13061;SDS011;6597;52.218;9.882;2023-08-21T06:28:51;17.58;;;4.13;;
13061;SDS011;6597;52.218;9.882;2023-08-21T06:31:19;16.20;;;4.10;;
13061;SDS011;6597;52.218;9.882;2023-08-21T06:33:46;11.48;;;3.35;;
13061;SDS011;6597;52.218;9.882;2023-08-21T06:36:13;15.00;;;4.60;;
13061;SDS011;6597;52.218;9.882;2023-08-21T06:38:39;12.27;;;3.50;;
13061;SDS011;6597;52.218;9.882;2023-08-21T06:41:06;12.23;;;3.50;;
13061;SDS011;6597;52.218;9.882;2023-08-21T06:43:33;10.70;;;3.33;;
13061;SDS011;6597;52.218;9.882;2023-08-21T06:45:59;13.43;;;3.70;;
13061;SDS011;6597;52.218;9.882;2023-08-21T06:48:28;11.32;;;3.85;;
13061;SDS011;6597;52.218;9.882;2023-08-21T06:50:54;9.38;;;3.20;;
13061;SDS011;6597;52.218;9.882;2023-08-21T06:53:21;8.32;;;3.40;;
13061;SDS011;6597;52.218;9.882;2023-08-21T06:55:48;9.63;;;3.25;;
13061;SDS011;6597;52.218;9.882;2023-08-21T06:58:14;8.90;;;3.40;;
13061;SDS011;6597;52.218;9.882;2023-08-21T07:00:41;10.05;;;3.47;;
13061;SDS011;6597;52.218;9.882;2023-08-21T07:03:08;11.88;;;3.47;;
13061;SDS011;6597;52.218;9.882;2023-08-21T07:05:36;15.50;;;5.43;;
13061;SDS011;6597;52.218;9.882;2023-08-21T07:08:03;9.20;;;3.53;;
13061;SDS011;6597;52.218;9.882;2023-08-21T07:10:30;11.20;;;3.30;;
13061;SDS011;6597;52.218;9.882;2023-08-21T07:13:02;7.85;;;3.08;;
13061;SDS011;6597;52.218;9.882;2023-08-21T07:15:28;8.00;;;3.47;;
13061;SDS011;6597;52.218;9.882;2023-08-21T07:17:55;8.27;;;3.22;;
13061;SDS011;6597;52.218;9.882;2023-08-21T07:20:22;6.63;;;2.97;;
13061;SDS011;6597;52.218;9.882;2023-08-21T07:22:50;5.65;;;2.83;;
13061;SDS011;6597;52.218;9.882;2023-08-21T07:25:16;8.30;;;3.70;;
13061;SDS011;6597;52.218;9.882;2023-08-21T07:27:43;4.47;;;2.60;;
13061;SDS011;6597;52.218;9.882;2023-08-21T07:30:10;6.13;;;2.92;;
13061;SDS011;6597;52.218;9.882;2023-08-21T07:32:37;10.35;;;3.00;;
13061;SDS011;6597;52.218;9.882;2023-08-21T07:35:04;8.80;;;3.15;;
13061;SDS011;6597;52.218;9.882;2023-08-21T07:37:31;4.97;;;2.95;;
13061;SDS011;6597;52.218;9.882;2023-08-21T07:39:59;8.73;;;5.15;;
13061;SDS011;6597;52.218;9.882;2023-08-21T07:42:25;10.65;;;4.00;;
13061;SDS011;6597;52.218;9.882;2023-08-21T07:44:52;5.18;;;2.88;;
13061;SDS011;6597;52.218;9.882;2023-08-21T07:47:18;4.90;;;2.75;;
13061;SDS011;6597;52.218;9.882;2023-08-21T07:49:45;6.15;;;2.63;;
13061;SDS011;6597;52.218;9.882;2023-08-21T07:52:12;4.43;;;2.40;;
13061;SDS011;6597;52.218;9.882;2023-08-21T07:54:38;6.65;;;2.72;;
13061;SDS011;6597;52.218;9.882;2023-08-21T07:57:06;8.35;;;2.80;;
13061;SDS011;6597;52.218;9.882;2023-08-21T07:59:33;7.05;;;2.28;;
13061;SDS011;6597;52.218;9.882;2023-08-21T08:01:59;7.45;;;2.90;;
13061;SDS011;6597;52.218;9.882;2023-08-21T08:04:27;4.70;;;2.35;;
13061;SDS011;6597;52.218;9.882;2023-08-21T08:06:53;9.55;;;2.85;;
13061;SDS011;6597;52.218;9.882;2023-08-21T08:09:20;10.55;;;3.13;;
13061;SDS011;6597;52.218;9.882;2023-08-21T08:11:47;5.90;;;2.67;;
13061;SDS011;6597;52.218;9.882;2023-08-21T08:14:15;6.32;;;2.83;;
13061;SDS011;6597;52.218;9.882;2023-08-21T08:16:42;8.35;;;3.08;;
13061;SDS011;6597;52.218;9.882;2023-08-21T08:19:08;12.30;;;3.03;;
13061;SDS011;6597;52.218;9.882;2023-08-21T08:21:35;10.25;;;3.40;;
13061;SDS011;6597;52.218;9.882;2023-08-21T08:24:01;17.77;;;3.75;;
13061;SDS011;6597;52.218;9.882;2023-08-21T08:26:29;12.70;;;3.03;;
13061;SDS011;6597;52.218;9.882;2023-08-21T08:28:55;15.55;;;2.97;;
13061;SDS011;6597;52.218;9.882;2023-08-21T08:31:23;27.13;;;3.90;;
13061;SDS011;6597;52.218;9.882;2023-08-21T08:33:50;21.83;;;3.00;;
13061;SDS011;6597;52.218;9.882;2023-08-21T08:36:18;29.65;;;4.72;;
13061;SDS011;6597;52.218;9.882;2023-08-21T08:38:45;17.10;;;3.45;;
13061;SDS011;6597;52.218;9.882;2023-08-21T08:41:12;15.55;;;3.00;;
13061;SDS011;6597;52.218;9.882;2023-08-21T08:43:44;20.92;;;3.15;;
13061;SDS011;6597;52.218;9.882;2023-08-21T08:46:12;46.10;;;7.47;;
13061;SDS011;6597;52.218;9.882;2023-08-21T08:48:40;18.45;;;2.83;;
13061;SDS011;6597;52.218;9.882;2023-08-21T08:51:07;20.25;;;3.75;;
13061;SDS011;6597;52.218;9.882;2023-08-21T08:53:33;20.52;;;3.53;;
13061;SDS011;6597;52.218;9.882;2023-08-21T08:56:00;24.55;;;3.58;;
13061;SDS011;6597;52.218;9.882;2023-08-21T08:58:28;14.93;;;2.45;;
13061;SDS011;6597;52.218;9.882;2023-08-21T09:00:55;25.25;;;3.30;;
13061;SDS011;6597;52.218;9.882;2023-08-21T09:03:21;13.88;;;2.88;;
13061;SDS011;6597;52.218;9.882;2023-08-21T09:05:49;9.25;;;2.35;;
13061;SDS011;6597;52.218;9.882;2023-08-21T09:08:15;15.07;;;2.75;;
13061;SDS011;6597;52.218;9.882;2023-08-21T09:10:42;11.52;;;2.40;;
13061;SDS011;6597;52.218;9.882;2023-08-21T09:13:13;6.28;;;1.90;;
13061;SDS011;6597;52.218;9.882;2023-08-21T09:15:41;7.70;;;2.05;;
13061;SDS011;6597;52.218;9.882;2023-08-21T09:18:09;7.57;;;1.90;;
13061;SDS011;6597;52.218;9.882;2023-08-21T09:20:36;5.72;;;1.80;;
13061;SDS011;6597;52.218;9.882;2023-08-21T09:23:05;6.85;;;1.85;;
13061;SDS011;6597;52.218;9.882;2023-08-21T09:25:34;9.68;;;2.53;;
13061;SDS011;6597;52.218;9.882;2023-08-21T09:28:03;12.27;;;2.55;;
13061;SDS011;6597;52.218;9.882;2023-08-21T09:30:42;13.40;;;4.25;;
13061;SDS011;6597;52.218;9.882;2023-08-21T09:33:10;6.80;;;2.30;;
13061;SDS011;6597;52.218;9.882;2023-08-21T09:35:37;9.23;;;2.80;;
13061;SDS011;6597;52.218;9.882;2023-08-21T09:38:06;8.98;;;2.28;;
13061;SDS011;6597;52.218;9.882;2023-08-21T09:40:33;6.25;;;1.98;;
13061;SDS011;6597;52.218;9.882;2023-08-21T09:43:00;11.48;;;2.20;;
13061;SDS011;6597;52.218;9.882;2023-08-21T09:45:30;24.50;;;2.58;;
13061;SDS011;6597;52.218;9.882;2023-08-21T09:47:57;10.38;;;2.10;;
13061;SDS011;6597;52.218;9.882;2023-08-21T09:50:25;10.00;;;2.05;;
13061;SDS011;6597;52.218;9.882;2023-08-21T09:52:54;12.43;;;2.33;;
13061;SDS011;6597;52.218;9.882;2023-08-21T09:55:24;12.10;;;2.67;;
13061;SDS011;6597;52.218;9.882;2023-08-21T09:57:54;15.13;;;2.70;;
13061;SDS011;6597;52.218;9.882;2023-08-21T10:00:26;31.35;;;4.00;;
13061;SDS011;6597;52.218;9.882;2023-08-21T10:02:54;20.55;;;2.88;;
13061;SDS011;6597;52.218;9.882;2023-08-21T10:05:27;48.35;;;6.10;;
13061;SDS011;6597;52.218;9.882;2023-08-21T10:07:55;23.50;;;2.90;;
13061;SDS011;6597;52.218;9.882;2023-08-21T10:10:23;14.68;;;2.47;;
13061;SDS011;6597;52.218;9.882;2023-08-21T10:12:50;15.00;;;2.35;;
13061;SDS011;6597;52.218;9.882;2023-08-21T10:15:17;13.35;;;2.40;;
13061;SDS011;6597;52.218;9.882;2023-08-21T10:17:44;11.40;;;2.45;;
13061;SDS011;6597;52.218;9.882;2023-08-21T10:20:10;25.17;;;3.75;;
13061;SDS011;6597;52.218;9.882;2023-08-21T10:22:38;15.52;;;2.63;;
13061;SDS011;6597;52.218;9.882;2023-08-21T10:25:14;18.08;;;3.03;;
13061;SDS011;6597;52.218;9.882;2023-08-21T10:27:43;14.65;;;2.50;;
13061;SDS011;6597;52.218;9.882;2023-08-21T10:30:13;10.07;;;2.15;;
13061;SDS011;6597;52.218;9.882;2023-08-21T10:32:46;14.88;;;2.72;;
13061;SDS011;6597;52.218;9.882;2023-08-21T10:35:14;19.05;;;2.90;;
13061;SDS011;6597;52.218;9.882;2023-08-21T10:40:36;17.88;;;2.90;;
13061;SDS011;6597;52.218;9.882;2023-08-21T10:43:05;11.85;;;2.40;;
13061;SDS011;6597;52.218;9.882;2023-08-21T10:46:04;15.32;;;2.95;;
13061;SDS011;6597;52.218;9.882;2023-08-21T10:48:31;19.80;;;3.28;;
13061;SDS011;6597;52.218;9.882;2023-08-21T10:50:58;13.20;;;2.35;;
13061;SDS011;6597;52.218;9.882;2023-08-21T10:53:28;35.25;;;5.78;;
13061;SDS011;6597;52.218;9.882;2023-08-21T10:55:55;18.88;;;2.67;;
13061;SDS011;6597;52.218;9.882;2023-08-21T10:58:23;7.20;;;1.85;;
13061;SDS011;6597;52.218;9.882;2023-08-21T11:00:55;6.63;;;2.15;;
13061;SDS011;6597;52.218;9.882;2023-08-21T11:03:22;5.68;;;2.00;;
13061;SDS011;6597;52.218;9.882;2023-08-21T11:05:59;7.18;;;2.47;;
13061;SDS011;6597;52.218;9.882;2023-08-21T11:08:26;10.27;;;2.78;;
13061;SDS011;6597;52.218;9.882;2023-08-21T11:10:54;10.57;;;2.90;;
13061;SDS011;6597;52.218;9.882;2023-08-21T11:13:23;7.22;;;2.17;;
13061;SDS011;6597;52.218;9.882;2023-08-21T11:15:57;14.15;;;2.83;;
13061;SDS011;6597;52.218;9.882;2023-08-21T11:18:29;5.05;;;2.08;;
13061;SDS011;6597;52.218;9.882;2023-08-21T11:21:02;11.00;;;2.13;;
13061;SDS011;6597;52.218;9.882;2023-08-21T11:23:31;15.02;;;2.55;;
13061;SDS011;6597;52.218;9.882;2023-08-21T11:25:58;22.23;;;3.10;;
13061;SDS011;6597;52.218;9.882;2023-08-21T11:28:26;20.98;;;2.90;;
13061;SDS011;6597;52.218;9.882;2023-08-21T11:30:55;20.17;;;3.03;;
13061;SDS011;6597;52.218;9.882;2023-08-21T11:33:22;8.05;;;1.88;;
13061;SDS011;6597;52.218;9.882;2023-08-21T11:35:49;13.25;;;2.65;;
13061;SDS011;6597;52.218;9.882;2023-08-21T11:38:17;47.83;;;7.28;;
13061;SDS011;6597;52.218;9.882;2023-08-21T11:40:51;14.32;;;2.88;;
13061;SDS011;6597;52.218;9.882;2023-08-21T11:43:19;12.13;;;2.63;;
13061;SDS011;6597;52.218;9.882;2023-08-21T11:45:47;9.60;;;2.50;;
13061;SDS011;6597;52.218;9.882;2023-08-21T11:48:13;11.35;;;2.53;;
13061;SDS011;6597;52.218;9.882;2023-08-21T11:50:40;36.33;;;4.60;;
13061;SDS011;6597;52.218;9.882;2023-08-21T11:53:07;30.00;;;3.20;;
13061;SDS011;6597;52.218;9.882;2023-08-21T11:55:34;14.57;;;2.85;;
13061;SDS011;6597;52.218;9.882;2023-08-21T11:58:01;13.13;;;2.88;;
13061;SDS011;6597;52.218;9.882;2023-08-21T12:00:29;15.50;;;2.78;;
13061;SDS011;6597;52.218;9.882;2023-08-21T12:02:58;18.40;;;3.50;;
13061;SDS011;6597;52.218;9.882;2023-08-21T12:05:25;22.73;;;3.22;;
13061;SDS011;6597;52.218;9.882;2023-08-21T12:07:53;16.33;;;3.05;;
13061;SDS011;6597;52.218;9.882;2023-08-21T12:10:23;12.50;;;2.70;;
13061;SDS011;6597;52.218;9.882;2023-08-21T12:12:50;13.27;;;2.67;;
13061;SDS011;6597;52.218;9.882;2023-08-21T12:15:17;12.60;;;2.50;;
13061;SDS011;6597;52.218;9.882;2023-08-21T12:17:43;14.93;;;2.88;;
13061;SDS011;6597;52.218;9.882;2023-08-21T12:20:12;17.13;;;3.30;;
13061;SDS011;6597;52.218;9.882;2023-08-21T12:22:39;14.13;;;2.88;;
13061;SDS011;6597;52.218;9.882;2023-08-21T12:25:07;14.23;;;2.28;;
13061;SDS011;6597;52.218;9.882;2023-08-21T12:27:35;30.00;;;5.38;;
13061;SDS011;6597;52.218;9.882;2023-08-21T12:30:01;17.58;;;2.80;;
13061;SDS011;6597;52.218;9.882;2023-08-21T12:32:28;36.60;;;5.95;;
13061;SDS011;6597;52.218;9.882;2023-08-21T12:34:54;6.38;;;1.83;;
13061;SDS011;6597;52.218;9.882;2023-08-21T12:37:22;20.30;;;3.10;;
13061;SDS011;6597;52.218;9.882;2023-08-21T12:39:50;16.27;;;2.47;;
13061;SDS011;6597;52.218;9.882;2023-08-21T12:42:17;17.33;;;3.10;;
13061;SDS011;6597;52.218;9.882;2023-08-21T12:44:43;26.25;;;3.35;;
13061;SDS011;6597;52.218;9.882;2023-08-21T12:47:10;19.25;;;3.00;;
13061;SDS011;6597;52.218;9.882;2023-08-21T12:49:37;12.07;;;2.15;;
13061;SDS011;6597;52.218;9.882;2023-08-21T12:52:04;40.95;;;4.93;;
13061;SDS011;6597;52.218;9.882;2023-08-21T12:54:33;20.75;;;2.83;;
13061;SDS011;6597;52.218;9.882;2023-08-21T12:56:59;24.60;;;3.28;;
13061;SDS011;6597;52.218;9.882;2023-08-21T12:59:26;48.90;;;6.47;;
13061;SDS011;6597;52.218;9.882;2023-08-21T13:01:52;26.60;;;3.97;;
13061;SDS011;6597;52.218;9.882;2023-08-21T13:04:19;25.15;;;3.45;;
13061;SDS011;6597;52.218;9.882;2023-08-21T13:06:45;42.10;;;6.00;;
13061;SDS011;6597;52.218;9.882;2023-08-21T13:09:12;16.95;;;2.92;;
13061;SDS011;6597;52.218;9.882;2023-08-21T13:11:40;20.50;;;2.85;;
13061;SDS011;6597;52.218;9.882;2023-08-21T13:14:06;18.80;;;2.50;;
13061;SDS011;6597;52.218;9.882;2023-08-21T13:16:33;13.07;;;2.15;;
13061;SDS011;6597;52.218;9.882;2023-08-21T13:18:59;12.38;;;2.05;;
13061;SDS011;6597;52.218;9.882;2023-08-21T13:21:26;20.75;;;2.75;;
13061;SDS011;6597;52.218;9.882;2023-08-21T13:23:53;31.92;;;3.60;;
13061;SDS011;6597;52.218;9.882;2023-08-21T13:26:19;31.33;;;4.28;;
13061;SDS011;6597;52.218;9.882;2023-08-21T13:28:47;15.45;;;1.88;;
13061;SDS011;6597;52.218;9.882;2023-08-21T13:31:13;16.35;;;2.47;;
13061;SDS011;6597;52.218;9.882;2023-08-21T13:33:44;16.38;;;2.67;;
13061;SDS011;6597;52.218;9.882;2023-08-21T13:36:10;29.27;;;3.95;;
13061;SDS011;6597;52.218;9.882;2023-08-21T13:38:37;39.80;;;5.57;;
13061;SDS011;6597;52.218;9.882;2023-08-21T13:41:03;11.52;;;2.25;;
13061;SDS011;6597;52.218;9.882;2023-08-21T13:43:30;17.13;;;2.47;;
13061;SDS011;6597;52.218;9.882;2023-08-21T13:45:59;13.32;;;2.30;;
13061;SDS011;6597;52.218;9.882;2023-08-21T13:48:26;20.27;;;2.90;;
13061;SDS011;6597;52.218;9.882;2023-08-21T13:50:53;21.85;;;2.80;;
13061;SDS011;6597;52.218;9.882;2023-08-21T13:53:19;15.68;;;2.50;;
13061;SDS011;6597;52.218;9.882;2023-08-21T13:55:46;25.75;;;3.63;;
13061;SDS011;6597;52.218;9.882;2023-08-21T13:58:12;17.60;;;2.53;;
13061;SDS011;6597;52.218;9.882;2023-08-21T14:00:39;19.10;;;2.85;;
13061;SDS011;6597;52.218;9.882;2023-08-21T14:03:07;17.38;;;2.50;;
13061;SDS011;6597;52.218;9.882;2023-08-21T14:05:33;25.20;;;3.10;;
13061;SDS011;6597;52.218;9.882;2023-08-21T14:08:00;15.90;;;2.00;;
13061;SDS011;6597;52.218;9.882;2023-08-21T14:10:26;24.15;;;3.25;;
13061;SDS011;6597;52.218;9.882;2023-08-21T14:12:54;15.98;;;2.08;;
13061;SDS011;6597;52.218;9.882;2023-08-21T14:15:22;23.38;;;3.20;;
13061;SDS011;6597;52.218;9.882;2023-08-21T14:17:48;5.03;;;1.63;;
13061;SDS011;6597;52.218;9.882;2023-08-21T14:20:16;9.23;;;2.85;;
13061;SDS011;6597;52.218;9.882;2023-08-21T14:22:43;8.13;;;2.30;;
13061;SDS011;6597;52.218;9.882;2023-08-21T14:25:09;10.50;;;3.25;;
13061;SDS011;6597;52.218;9.882;2023-08-21T14:27:36;6.53;;;1.98;;
13061;SDS011;6597;52.218;9.882;2023-08-21T14:30:03;13.73;;;3.15;;
13061;SDS011;6597;52.218;9.882;2023-08-21T14:32:31;8.13;;;2.60;;
13061;SDS011;6597;52.218;9.882;2023-08-21T14:34:57;8.85;;;2.17;;
13061;SDS011;6597;52.218;9.882;2023-08-21T14:37:25;10.95;;;3.22;;
13061;SDS011;6597;52.218;9.882;2023-08-21T14:39:52;9.55;;;2.53;;
13061;SDS011;6597;52.218;9.882;2023-08-21T14:42:18;7.75;;;2.58;;
13061;SDS011;6597;52.218;9.882;2023-08-21T14:44:45;5.40;;;1.88;;
13061;SDS011;6597;52.218;9.882;2023-08-21T14:47:11;6.78;;;2.22;;
13061;SDS011;6597;52.218;9.882;2023-08-21T14:49:38;5.43;;;1.75;;
13061;SDS011;6597;52.218;9.882;2023-08-21T14:52:05;10.48;;;2.25;;
13061;SDS011;6597;52.218;9.882;2023-08-21T14:54:34;12.73;;;3.00;;